sensor_id;sensor_type;location;lat;lon;timestamp;P1;durP1;ratioP1;P2;durP2;ratioP2
72924;SDS011;61070;50.794;7.054;2023-09-19T00:00:42;3.75;;;1.10;;
72924;SDS011;61070;50.794;7.054;2023-09-19T00:01:43;2.90;;;1.30;;
72924;SDS011;61070;50.794;7.054;2023-09-19T00:02:46;3.55;;;1.52;;
72924;SDS011;61070;50.794;7.054;2023-09-19T00:03:52;10.38;;;2.15;;
72924;SDS011;61070;50.794;7.054;2023-09-19T00:04:53;4.78;;;1.60;;
72924;SDS011;61070;50.794;7.054;2023-09-19T00:05:53;8.65;;;1.60;;
72924;SDS011;61070;50.794;7.054;2023-09-19T00:06:55;4.78;;;1.40;;
72924;SDS011;61070;50.794;7.054;2023-09-19T00:07:56;8.05;;;1.75;;
72924;SDS011;61070;50.794;7.054;2023-09-19T00:08:58;4.47;;;1.13;;
72924;SDS011;61070;50.794;7.054;2023-09-19T00:10:00;5.75;;;1.40;;
72924;SDS011;61070;50.794;7.054;2023-09-19T00:11:00;3.78;;;1.27;;
72924;SDS011;61070;50.794;7.054;2023-09-19T00:12:06;7.13;;;1.90;;
72924;SDS011;61070;50.794;7.054;2023-09-19T00:13:09;10.00;;;1.70;;
72924;SDS011;61070;50.794;7.054;2023-09-19T00:14:13;4.50;;;1.67;;
72924;SDS011;61070;50.794;7.054;2023-09-19T00:15:14;5.43;;;1.30;;
72924;SDS011;61070;50.794;7.054;2023-09-19T00:16:17;4.45;;;1.20;;
72924;SDS011;61070;50.794;7.054;2023-09-19T00:17:19;5.75;;;1.40;;
72924;SDS011;61070;50.794;7.054;2023-09-19T00:18:19;4.45;;;1.40;;
72924;SDS011;61070;50.794;7.054;2023-09-19T00:19:21;3.40;;;1.35;;
72924;SDS011;61070;50.794;7.054;2023-09-19T00:20:21;5.93;;;1.27;;
72924;SDS011;61070;50.794;7.054;2023-09-19T00:21:26;5.20;;;1.23;;
72924;SDS011;61070;50.794;7.054;2023-09-19T00:22:26;7.95;;;1.45;;
72924;SDS011;61070;50.794;7.054;2023-09-19T00:23:27;11.48;;;1.75;;
72924;SDS011;61070;50.794;7.054;2023-09-19T00:24:28;6.63;;;1.55;;
72924;SDS011;61070;50.794;7.054;2023-09-19T00:25:28;1.83;;;0.93;;
72924;SDS011;61070;50.794;7.054;2023-09-19T00:26:28;5.82;;;1.45;;
72924;SDS011;61070;50.794;7.054;2023-09-19T00:27:30;4.38;;;1.40;;
72924;SDS011;61070;50.794;7.054;2023-09-19T00:28:31;4.53;;;1.30;;
72924;SDS011;61070;50.794;7.054;2023-09-19T00:29:31;4.57;;;1.38;;
72924;SDS011;61070;50.794;7.054;2023-09-19T00:30:33;6.70;;;2.13;;
72924;SDS011;61070;50.794;7.054;2023-09-19T00:31:34;6.68;;;1.98;;
72924;SDS011;61070;50.794;7.054;2023-09-19T00:32:37;8.50;;;1.60;;
72924;SDS011;61070;50.794;7.054;2023-09-19T00:33:37;7.93;;;1.63;;
72924;SDS011;61070;50.794;7.054;2023-09-19T00:34:37;4.70;;;1.05;;
72924;SDS011;61070;50.794;7.054;2023-09-19T00:35:38;5.35;;;1.58;;
72924;SDS011;61070;50.794;7.054;2023-09-19T00:36:38;8.75;;;1.70;;
72924;SDS011;61070;50.794;7.054;2023-09-19T00:37:39;5.82;;;1.63;;
72924;SDS011;61070;50.794;7.054;2023-09-19T00:38:39;5.78;;;1.52;;
72924;SDS011;61070;50.794;7.054;2023-09-19T00:39:40;6.80;;;1.58;;
72924;SDS011;61070;50.794;7.054;2023-09-19T00:40:43;8.88;;;1.73;;
72924;SDS011;61070;50.794;7.054;2023-09-19T00:41:44;5.57;;;1.50;;
72924;SDS011;61070;50.794;7.054;2023-09-19T00:42:45;4.22;;;1.42;;
72924;SDS011;61070;50.794;7.054;2023-09-19T00:43:46;5.63;;;1.48;;
72924;SDS011;61070;50.794;7.054;2023-09-19T00:44:47;7.25;;;2.33;;
72924;SDS011;61070;50.794;7.054;2023-09-19T00:45:51;12.15;;;1.35;;
72924;SDS011;61070;50.794;7.054;2023-09-19T00:46:53;9.38;;;1.30;;
72924;SDS011;61070;50.794;7.054;2023-09-19T00:47:53;10.60;;;1.92;;
72924;SDS011;61070;50.794;7.054;2023-09-19T00:48:54;6.45;;;1.77;;
72924;SDS011;61070;50.794;7.054;2023-09-19T00:49:54;9.73;;;2.00;;
72924;SDS011;61070;50.794;7.054;2023-09-19T00:50:56;4.88;;;1.20;;
72924;SDS011;61070;50.794;7.054;2023-09-19T00:51:58;4.28;;;1.38;;
72924;SDS011;61070;50.794;7.054;2023-09-19T00:52:59;5.82;;;1.27;;
72924;SDS011;61070;50.794;7.054;2023-09-19T00:54:00;8.93;;;1.27;;
72924;SDS011;61070;50.794;7.054;2023-09-19T00:55:01;6.90;;;1.80;;
72924;SDS011;61070;50.794;7.054;2023-09-19T00:56:02;5.25;;;1.45;;
72924;SDS011;61070;50.794;7.054;2023-09-19T00:57:07;5.03;;;1.40;;
72924;SDS011;61070;50.794;7.054;2023-09-19T00:58:08;7.53;;;1.40;;
72924;SDS011;61070;50.794;7.054;2023-09-19T00:59:10;9.88;;;1.90;;
72924;SDS011;61070;50.794;7.054;2023-09-19T01:00:11;8.40;;;1.70;;
72924;SDS011;61070;50.794;7.054;2023-09-19T01:01:15;5.40;;;1.20;;
72924;SDS011;61070;50.794;7.054;2023-09-19T01:02:17;6.65;;;1.90;;
72924;SDS011;61070;50.794;7.054;2023-09-19T01:03:17;8.85;;;1.70;;
72924;SDS011;61070;50.794;7.054;2023-09-19T01:04:18;4.55;;;1.30;;
72924;SDS011;61070;50.794;7.054;2023-09-19T01:05:18;8.15;;;1.98;;
72924;SDS011;61070;50.794;7.054;2023-09-19T01:06:19;5.55;;;1.23;;
72924;SDS011;61070;50.794;7.054;2023-09-19T01:07:19;2.75;;;1.17;;
72924;SDS011;61070;50.794;7.054;2023-09-19T01:08:21;8.77;;;1.63;;
72924;SDS011;61070;50.794;7.054;2023-09-19T01:09:21;6.18;;;1.45;;
72924;SDS011;61070;50.794;7.054;2023-09-19T01:10:22;7.78;;;1.50;;
72924;SDS011;61070;50.794;7.054;2023-09-19T01:11:28;4.13;;;1.52;;
72924;SDS011;61070;50.794;7.054;2023-09-19T01:13:04;4.53;;;1.73;;
72924;SDS011;61070;50.794;7.054;2023-09-19T01:15:32;3.20;;;1.13;;
72924;SDS011;61070;50.794;7.054;2023-09-19T01:16:47;5.93;;;1.20;;
72924;SDS011;61070;50.794;7.054;2023-09-19T01:17:57;8.07;;;2.05;;
72924;SDS011;61070;50.794;7.054;2023-09-19T01:23:30;5.20;;;1.73;;
72924;SDS011;61070;50.794;7.054;2023-09-19T01:28:51;8.15;;;1.40;;
72924;SDS011;61070;50.794;7.054;2023-09-19T01:30:07;7.05;;;1.83;;
72924;SDS011;61070;50.794;7.054;2023-09-19T01:31:10;6.32;;;1.35;;
72924;SDS011;61070;50.794;7.054;2023-09-19T01:32:13;7.30;;;1.58;;
72924;SDS011;61070;50.794;7.054;2023-09-19T01:33:22;10.02;;;1.80;;
72924;SDS011;61070;50.794;7.054;2023-09-19T01:34:23;6.50;;;1.45;;
72924;SDS011;61070;50.794;7.054;2023-09-19T01:35:23;4.00;;;1.85;;
72924;SDS011;61070;50.794;7.054;2023-09-19T01:36:23;7.03;;;2.00;;
72924;SDS011;61070;50.794;7.054;2023-09-19T01:37:23;9.07;;;1.75;;
72924;SDS011;61070;50.794;7.054;2023-09-19T01:38:27;6.63;;;1.77;;
72924;SDS011;61070;50.794;7.054;2023-09-19T01:39:27;9.52;;;2.20;;
72924;SDS011;61070;50.794;7.054;2023-09-19T01:40:29;9.07;;;2.25;;
72924;SDS011;61070;50.794;7.054;2023-09-19T01:41:36;8.18;;;1.67;;
72924;SDS011;61070;50.794;7.054;2023-09-19T01:45:07;12.93;;;1.90;;
72924;SDS011;61070;50.794;7.054;2023-09-19T01:47:09;8.45;;;1.75;;
72924;SDS011;61070;50.794;7.054;2023-09-19T01:48:43;9.27;;;1.95;;
72924;SDS011;61070;50.794;7.054;2023-09-19T01:50:37;6.43;;;1.63;;
72924;SDS011;61070;50.794;7.054;2023-09-19T01:51:20;8.23;;;1.75;;
72924;SDS011;61070;50.794;7.054;2023-09-19T01:52:28;7.43;;;1.60;;
72924;SDS011;61070;50.794;7.054;2023-09-19T01:53:53;9.10;;;1.60;;
72924;SDS011;61070;50.794;7.054;2023-09-19T01:55:05;8.15;;;1.65;;
72924;SDS011;61070;50.794;7.054;2023-09-19T01:56:08;9.73;;;2.03;;
72924;SDS011;61070;50.794;7.054;2023-09-19T01:57:23;8.68;;;1.67;;
72924;SDS011;61070;50.794;7.054;2023-09-19T01:59:54;7.82;;;2.05;;
72924;SDS011;61070;50.794;7.054;2023-09-19T02:01:08;11.18;;;2.10;;
72924;SDS011;61070;50.794;7.054;2023-09-19T02:02:13;12.50;;;1.98;;
72924;SDS011;61070;50.794;7.054;2023-09-19T02:03:14;12.60;;;2.50;;
72924;SDS011;61070;50.794;7.054;2023-09-19T02:04:15;9.50;;;2.55;;
72924;SDS011;61070;50.794;7.054;2023-09-19T02:05:23;9.73;;;2.05;;
72924;SDS011;61070;50.794;7.054;2023-09-19T02:06:29;9.55;;;2.58;;
72924;SDS011;61070;50.794;7.054;2023-09-19T02:07:30;6.85;;;2.03;;
72924;SDS011;61070;50.794;7.054;2023-09-19T02:08:31;11.27;;;1.88;;
72924;SDS011;61070;50.794;7.054;2023-09-19T02:09:33;13.52;;;1.95;;
72924;SDS011;61070;50.794;7.054;2023-09-19T02:10:35;8.85;;;2.08;;
72924;SDS011;61070;50.794;7.054;2023-09-19T02:11:35;11.77;;;2.08;;
72924;SDS011;61070;50.794;7.054;2023-09-19T02:12:36;13.68;;;2.40;;
72924;SDS011;61070;50.794;7.054;2023-09-19T02:13:38;9.10;;;2.00;;
72924;SDS011;61070;50.794;7.054;2023-09-19T02:14:39;9.88;;;1.90;;
72924;SDS011;61070;50.794;7.054;2023-09-19T02:15:39;11.77;;;2.20;;
72924;SDS011;61070;50.794;7.054;2023-09-19T02:16:40;13.38;;;2.20;;
72924;SDS011;61070;50.794;7.054;2023-09-19T02:17:40;14.13;;;2.42;;
72924;SDS011;61070;50.794;7.054;2023-09-19T02:18:41;9.88;;;2.38;;
72924;SDS011;61070;50.794;7.054;2023-09-19T02:19:41;12.32;;;2.60;;
72924;SDS011;61070;50.794;7.054;2023-09-19T02:20:42;16.45;;;3.38;;
72924;SDS011;61070;50.794;7.054;2023-09-19T02:21:42;14.50;;;2.20;;
72924;SDS011;61070;50.794;7.054;2023-09-19T02:22:43;14.82;;;2.80;;
72924;SDS011;61070;50.794;7.054;2023-09-19T02:23:44;11.10;;;2.67;;
72924;SDS011;61070;50.794;7.054;2023-09-19T02:24:47;11.30;;;2.65;;
72924;SDS011;61070;50.794;7.054;2023-09-19T02:25:51;9.30;;;1.92;;
72924;SDS011;61070;50.794;7.054;2023-09-19T02:26:52;10.18;;;2.55;;
72924;SDS011;61070;50.794;7.054;2023-09-19T02:27:54;10.50;;;2.30;;
72924;SDS011;61070;50.794;7.054;2023-09-19T02:28:58;10.65;;;2.63;;
72924;SDS011;61070;50.794;7.054;2023-09-19T02:29:59;11.52;;;2.63;;
72924;SDS011;61070;50.794;7.054;2023-09-19T02:31:02;13.80;;;2.47;;
72924;SDS011;61070;50.794;7.054;2023-09-19T02:32:05;14.52;;;2.42;;
72924;SDS011;61070;50.794;7.054;2023-09-19T02:33:06;11.05;;;2.50;;
72924;SDS011;61070;50.794;7.054;2023-09-19T02:34:07;10.18;;;2.33;;
72924;SDS011;61070;50.794;7.054;2023-09-19T02:35:08;10.85;;;2.75;;
72924;SDS011;61070;50.794;7.054;2023-09-19T02:36:10;8.65;;;2.47;;
72924;SDS011;61070;50.794;7.054;2023-09-19T02:37:11;13.35;;;3.35;;
72924;SDS011;61070;50.794;7.054;2023-09-19T02:38:13;16.90;;;2.60;;
72924;SDS011;61070;50.794;7.054;2023-09-19T02:39:14;9.95;;;2.50;;
72924;SDS011;61070;50.794;7.054;2023-09-19T02:40:15;14.02;;;2.90;;
72924;SDS011;61070;50.794;7.054;2023-09-19T02:41:25;15.10;;;2.80;;
72924;SDS011;61070;50.794;7.054;2023-09-19T02:42:26;11.88;;;2.85;;
72924;SDS011;61070;50.794;7.054;2023-09-19T02:43:26;18.50;;;2.72;;
72924;SDS011;61070;50.794;7.054;2023-09-19T02:44:27;17.60;;;2.92;;
72924;SDS011;61070;50.794;7.054;2023-09-19T02:45:27;10.07;;;2.22;;
72924;SDS011;61070;50.794;7.054;2023-09-19T02:46:29;13.38;;;2.50;;
72924;SDS011;61070;50.794;7.054;2023-09-19T02:47:30;17.48;;;3.65;;
72924;SDS011;61070;50.794;7.054;2023-09-19T02:48:31;11.05;;;1.92;;
72924;SDS011;61070;50.794;7.054;2023-09-19T02:49:32;8.25;;;2.10;;
72924;SDS011;61070;50.794;7.054;2023-09-19T02:50:32;19.73;;;2.60;;
72924;SDS011;61070;50.794;7.054;2023-09-19T02:51:33;13.70;;;2.22;;
72924;SDS011;61070;50.794;7.054;2023-09-19T02:52:34;11.95;;;2.75;;
72924;SDS011;61070;50.794;7.054;2023-09-19T02:53:35;14.02;;;3.83;;
72924;SDS011;61070;50.794;7.054;2023-09-19T02:54:35;13.13;;;2.42;;
72924;SDS011;61070;50.794;7.054;2023-09-19T02:55:36;12.57;;;2.35;;
72924;SDS011;61070;50.794;7.054;2023-09-19T02:56:38;10.05;;;2.38;;
72924;SDS011;61070;50.794;7.054;2023-09-19T02:57:38;10.82;;;2.38;;
72924;SDS011;61070;50.794;7.054;2023-09-19T02:58:41;15.98;;;2.72;;
72924;SDS011;61070;50.794;7.054;2023-09-19T02:59:42;12.82;;;2.55;;
72924;SDS011;61070;50.794;7.054;2023-09-19T03:00:44;17.45;;;3.13;;
72924;SDS011;61070;50.794;7.054;2023-09-19T03:01:47;18.30;;;2.63;;
72924;SDS011;61070;50.794;7.054;2023-09-19T03:02:52;13.63;;;2.47;;
72924;SDS011;61070;50.794;7.054;2023-09-19T03:03:54;11.48;;;2.60;;
72924;SDS011;61070;50.794;7.054;2023-09-19T03:04:55;13.40;;;2.70;;
72924;SDS011;61070;50.794;7.054;2023-09-19T03:05:56;17.77;;;3.42;;
72924;SDS011;61070;50.794;7.054;2023-09-19T03:06:58;16.23;;;2.47;;
72924;SDS011;61070;50.794;7.054;2023-09-19T03:08:00;11.95;;;2.55;;
72924;SDS011;61070;50.794;7.054;2023-09-19T03:09:01;12.02;;;2.63;;
72924;SDS011;61070;50.794;7.054;2023-09-19T03:10:03;11.80;;;2.58;;
72924;SDS011;61070;50.794;7.054;2023-09-19T03:11:05;9.45;;;2.65;;
72924;SDS011;61070;50.794;7.054;2023-09-19T03:12:06;11.48;;;2.22;;
72924;SDS011;61070;50.794;7.054;2023-09-19T03:13:06;10.88;;;2.20;;
72924;SDS011;61070;50.794;7.054;2023-09-19T03:14:09;14.70;;;2.83;;
72924;SDS011;61070;50.794;7.054;2023-09-19T03:15:10;13.32;;;2.20;;
72924;SDS011;61070;50.794;7.054;2023-09-19T03:16:10;11.55;;;2.35;;
72924;SDS011;61070;50.794;7.054;2023-09-19T03:17:10;11.07;;;2.53;;
72924;SDS011;61070;50.794;7.054;2023-09-19T03:18:11;15.95;;;2.45;;
72924;SDS011;61070;50.794;7.054;2023-09-19T03:19:12;9.48;;;2.53;;
72924;SDS011;61070;50.794;7.054;2023-09-19T03:20:15;9.93;;;2.65;;
72924;SDS011;61070;50.794;7.054;2023-09-19T03:21:19;15.80;;;2.97;;
72924;SDS011;61070;50.794;7.054;2023-09-19T03:22:19;13.10;;;2.35;;
72924;SDS011;61070;50.794;7.054;2023-09-19T03:23:19;15.57;;;2.60;;
72924;SDS011;61070;50.794;7.054;2023-09-19T03:24:20;13.20;;;2.42;;
72924;SDS011;61070;50.794;7.054;2023-09-19T03:25:20;11.52;;;2.33;;
72924;SDS011;61070;50.794;7.054;2023-09-19T03:26:23;13.13;;;2.65;;
72924;SDS011;61070;50.794;7.054;2023-09-19T03:27:23;12.60;;;2.60;;
72924;SDS011;61070;50.794;7.054;2023-09-19T03:28:23;16.38;;;2.78;;
72924;SDS011;61070;50.794;7.054;2023-09-19T03:29:24;18.38;;;2.63;;
72924;SDS011;61070;50.794;7.054;2023-09-19T03:30:25;16.05;;;2.42;;
72924;SDS011;61070;50.794;7.054;2023-09-19T03:31:26;16.45;;;2.53;;
72924;SDS011;61070;50.794;7.054;2023-09-19T03:32:26;13.23;;;2.65;;
72924;SDS011;61070;50.794;7.054;2023-09-19T03:33:27;13.43;;;2.25;;
72924;SDS011;61070;50.794;7.054;2023-09-19T03:34:27;15.82;;;3.08;;
72924;SDS011;61070;50.794;7.054;2023-09-19T03:35:28;14.30;;;2.45;;
72924;SDS011;61070;50.794;7.054;2023-09-19T03:36:28;13.43;;;3.47;;
72924;SDS011;61070;50.794;7.054;2023-09-19T03:37:29;14.50;;;2.58;;
72924;SDS011;61070;50.794;7.054;2023-09-19T03:38:29;14.80;;;2.60;;
72924;SDS011;61070;50.794;7.054;2023-09-19T03:39:30;15.85;;;2.47;;
72924;SDS011;61070;50.794;7.054;2023-09-19T03:40:30;17.27;;;2.55;;
72924;SDS011;61070;50.794;7.054;2023-09-19T03:41:31;13.52;;;2.55;;
72924;SDS011;61070;50.794;7.054;2023-09-19T03:42:33;11.27;;;2.47;;
72924;SDS011;61070;50.794;7.054;2023-09-19T03:43:36;10.48;;;2.67;;
72924;SDS011;61070;50.794;7.054;2023-09-19T03:44:36;18.77;;;2.42;;
72924;SDS011;61070;50.794;7.054;2023-09-19T03:45:37;13.30;;;2.25;;
72924;SDS011;61070;50.794;7.054;2023-09-19T03:46:38;14.40;;;3.35;;
72924;SDS011;61070;50.794;7.054;2023-09-19T03:47:38;13.43;;;2.97;;
72924;SDS011;61070;50.794;7.054;2023-09-19T03:48:39;13.80;;;2.90;;
72924;SDS011;61070;50.794;7.054;2023-09-19T03:49:39;14.40;;;2.42;;
72924;SDS011;61070;50.794;7.054;2023-09-19T03:50:39;14.13;;;2.80;;
72924;SDS011;61070;50.794;7.054;2023-09-19T03:51:40;18.23;;;3.63;;
72924;SDS011;61070;50.794;7.054;2023-09-19T03:52:41;9.48;;;2.42;;
72924;SDS011;61070;50.794;7.054;2023-09-19T03:53:42;11.38;;;2.38;;
72924;SDS011;61070;50.794;7.054;2023-09-19T03:54:42;11.88;;;2.58;;
72924;SDS011;61070;50.794;7.054;2023-09-19T03:55:44;16.58;;;3.30;;
72924;SDS011;61070;50.794;7.054;2023-09-19T03:56:46;12.27;;;2.67;;
72924;SDS011;61070;50.794;7.054;2023-09-19T03:57:49;13.63;;;2.50;;
72924;SDS011;61070;50.794;7.054;2023-09-19T03:58:50;12.55;;;2.55;;
72924;SDS011;61070;50.794;7.054;2023-09-19T03:59:50;11.00;;;2.53;;
72924;SDS011;61070;50.794;7.054;2023-09-19T04:00:56;9.98;;;2.42;;
72924;SDS011;61070;50.794;7.054;2023-09-19T04:01:57;11.82;;;2.70;;
72924;SDS011;61070;50.794;7.054;2023-09-19T04:02:58;15.88;;;3.20;;
72924;SDS011;61070;50.794;7.054;2023-09-19T04:03:58;10.27;;;2.83;;
72924;SDS011;61070;50.794;7.054;2023-09-19T04:05:07;10.70;;;2.28;;
72924;SDS011;61070;50.794;7.054;2023-09-19T04:06:08;13.18;;;3.40;;
72924;SDS011;61070;50.794;7.054;2023-09-19T04:07:08;13.75;;;3.75;;
72924;SDS011;61070;50.794;7.054;2023-09-19T04:08:08;9.55;;;3.13;;
72924;SDS011;61070;50.794;7.054;2023-09-19T04:09:09;8.70;;;2.53;;
72924;SDS011;61070;50.794;7.054;2023-09-19T04:10:09;12.60;;;2.67;;
72924;SDS011;61070;50.794;7.054;2023-09-19T04:11:11;10.32;;;2.35;;
72924;SDS011;61070;50.794;7.054;2023-09-19T04:12:12;18.80;;;2.53;;
72924;SDS011;61070;50.794;7.054;2023-09-19T04:13:12;17.27;;;2.80;;
72924;SDS011;61070;50.794;7.054;2023-09-19T04:14:12;24.45;;;3.20;;
72924;SDS011;61070;50.794;7.054;2023-09-19T04:15:12;12.80;;;3.10;;
72924;SDS011;61070;50.794;7.054;2023-09-19T04:16:13;13.25;;;2.70;;
72924;SDS011;61070;50.794;7.054;2023-09-19T04:17:13;14.25;;;2.80;;
72924;SDS011;61070;50.794;7.054;2023-09-19T04:18:13;11.93;;;2.15;;
72924;SDS011;61070;50.794;7.054;2023-09-19T04:19:14;12.43;;;3.28;;
72924;SDS011;61070;50.794;7.054;2023-09-19T04:20:14;15.35;;;2.92;;
72924;SDS011;61070;50.794;7.054;2023-09-19T04:21:15;13.55;;;3.05;;
72924;SDS011;61070;50.794;7.054;2023-09-19T04:22:16;13.43;;;2.67;;
72924;SDS011;61070;50.794;7.054;2023-09-19T04:23:16;8.30;;;2.33;;
72924;SDS011;61070;50.794;7.054;2023-09-19T04:24:17;7.38;;;2.63;;
72924;SDS011;61070;50.794;7.054;2023-09-19T04:25:19;11.95;;;2.95;;
72924;SDS011;61070;50.794;7.054;2023-09-19T04:26:20;11.65;;;2.60;;
72924;SDS011;61070;50.794;7.054;2023-09-19T04:27:21;10.48;;;2.47;;
72924;SDS011;61070;50.794;7.054;2023-09-19T04:28:22;6.82;;;2.10;;
72924;SDS011;61070;50.794;7.054;2023-09-19T04:29:24;12.55;;;2.92;;
72924;SDS011;61070;50.794;7.054;2023-09-19T04:30:24;12.77;;;2.30;;
72924;SDS011;61070;50.794;7.054;2023-09-19T04:31:25;14.38;;;2.95;;
72924;SDS011;61070;50.794;7.054;2023-09-19T04:32:28;10.70;;;2.33;;
72924;SDS011;61070;50.794;7.054;2023-09-19T04:33:29;8.40;;;2.15;;
72924;SDS011;61070;50.794;7.054;2023-09-19T04:34:30;12.48;;;2.78;;
72924;SDS011;61070;50.794;7.054;2023-09-19T04:35:30;13.73;;;2.72;;
72924;SDS011;61070;50.794;7.054;2023-09-19T04:36:32;13.15;;;2.50;;
72924;SDS011;61070;50.794;7.054;2023-09-19T04:37:32;18.73;;;2.83;;
72924;SDS011;61070;50.794;7.054;2023-09-19T04:38:33;14.80;;;2.72;;
72924;SDS011;61070;50.794;7.054;2023-09-19T04:39:33;10.27;;;2.85;;
72924;SDS011;61070;50.794;7.054;2023-09-19T04:40:34;11.40;;;3.22;;
72924;SDS011;61070;50.794;7.054;2023-09-19T04:41:34;11.05;;;2.25;;
72924;SDS011;61070;50.794;7.054;2023-09-19T04:42:34;9.73;;;2.67;;
72924;SDS011;61070;50.794;7.054;2023-09-19T04:43:35;13.32;;;2.75;;
72924;SDS011;61070;50.794;7.054;2023-09-19T04:44:35;12.32;;;2.47;;
72924;SDS011;61070;50.794;7.054;2023-09-19T04:45:38;15.75;;;2.90;;
72924;SDS011;61070;50.794;7.054;2023-09-19T04:46:40;14.95;;;3.50;;
72924;SDS011;61070;50.794;7.054;2023-09-19T04:47:40;15.20;;;3.40;;
72924;SDS011;61070;50.794;7.054;2023-09-19T04:48:43;13.23;;;2.47;;
72924;SDS011;61070;50.794;7.054;2023-09-19T04:49:43;15.73;;;2.25;;
72924;SDS011;61070;50.794;7.054;2023-09-19T04:50:44;10.35;;;2.17;;
72924;SDS011;61070;50.794;7.054;2023-09-19T04:51:44;9.15;;;2.53;;
72924;SDS011;61070;50.794;7.054;2023-09-19T04:52:48;12.10;;;2.78;;
72924;SDS011;61070;50.794;7.054;2023-09-19T04:53:50;11.43;;;2.83;;
72924;SDS011;61070;50.794;7.054;2023-09-19T04:54:51;14.10;;;3.58;;
72924;SDS011;61070;50.794;7.054;2023-09-19T04:55:51;13.40;;;2.70;;
72924;SDS011;61070;50.794;7.054;2023-09-19T04:56:55;10.75;;;2.10;;
72924;SDS011;61070;50.794;7.054;2023-09-19T04:57:55;11.23;;;2.75;;
72924;SDS011;61070;50.794;7.054;2023-09-19T04:58:56;16.17;;;2.88;;
72924;SDS011;61070;50.794;7.054;2023-09-19T04:59:58;12.23;;;2.78;;
72924;SDS011;61070;50.794;7.054;2023-09-19T05:00:58;10.00;;;2.88;;
72924;SDS011;61070;50.794;7.054;2023-09-19T05:01:59;13.32;;;2.38;;
72924;SDS011;61070;50.794;7.054;2023-09-19T05:02:59;14.02;;;2.80;;
72924;SDS011;61070;50.794;7.054;2023-09-19T05:03:59;11.60;;;2.55;;
72924;SDS011;61070;50.794;7.054;2023-09-19T05:05:00;19.10;;;3.10;;
72924;SDS011;61070;50.794;7.054;2023-09-19T05:06:01;10.50;;;3.58;;
72924;SDS011;61070;50.794;7.054;2023-09-19T05:07:01;15.13;;;3.05;;
72924;SDS011;61070;50.794;7.054;2023-09-19T05:08:03;12.75;;;2.00;;
72924;SDS011;61070;50.794;7.054;2023-09-19T05:09:05;14.30;;;2.72;;
72924;SDS011;61070;50.794;7.054;2023-09-19T05:10:05;10.50;;;2.75;;
72924;SDS011;61070;50.794;7.054;2023-09-19T05:11:07;8.43;;;2.45;;
72924;SDS011;61070;50.794;7.054;2023-09-19T05:12:08;13.35;;;2.15;;
72924;SDS011;61070;50.794;7.054;2023-09-19T05:13:10;17.08;;;2.80;;
72924;SDS011;61070;50.794;7.054;2023-09-19T05:14:12;12.52;;;2.88;;
72924;SDS011;61070;50.794;7.054;2023-09-19T05:15:12;13.15;;;2.70;;
72924;SDS011;61070;50.794;7.054;2023-09-19T05:16:19;12.00;;;2.72;;
72924;SDS011;61070;50.794;7.054;2023-09-19T05:17:20;12.70;;;2.60;;
72924;SDS011;61070;50.794;7.054;2023-09-19T05:18:20;9.95;;;2.35;;
72924;SDS011;61070;50.794;7.054;2023-09-19T05:19:21;21.73;;;2.72;;
72924;SDS011;61070;50.794;7.054;2023-09-19T05:20:22;16.15;;;3.10;;
72924;SDS011;61070;50.794;7.054;2023-09-19T05:21:30;10.57;;;2.45;;
72924;SDS011;61070;50.794;7.054;2023-09-19T05:22:31;8.88;;;2.25;;
72924;SDS011;61070;50.794;7.054;2023-09-19T05:23:32;16.42;;;3.13;;
72924;SDS011;61070;50.794;7.054;2023-09-19T05:24:32;18.80;;;3.47;;
72924;SDS011;61070;50.794;7.054;2023-09-19T05:25:33;12.48;;;2.90;;
72924;SDS011;61070;50.794;7.054;2023-09-19T05:26:38;17.40;;;2.85;;
72924;SDS011;61070;50.794;7.054;2023-09-19T05:27:39;17.25;;;4.38;;
72924;SDS011;61070;50.794;7.054;2023-09-19T05:28:40;11.80;;;2.15;;
72924;SDS011;61070;50.794;7.054;2023-09-19T05:29:40;16.40;;;3.50;;
72924;SDS011;61070;50.794;7.054;2023-09-19T05:30:42;9.60;;;2.70;;
72924;SDS011;61070;50.794;7.054;2023-09-19T05:31:43;9.52;;;2.25;;
72924;SDS011;61070;50.794;7.054;2023-09-19T05:32:43;17.25;;;3.13;;
72924;SDS011;61070;50.794;7.054;2023-09-19T05:33:43;13.38;;;2.85;;
72924;SDS011;61070;50.794;7.054;2023-09-19T05:34:44;12.52;;;2.90;;
72924;SDS011;61070;50.794;7.054;2023-09-19T05:35:44;14.85;;;3.65;;
72924;SDS011;61070;50.794;7.054;2023-09-19T05:36:46;16.80;;;3.00;;
72924;SDS011;61070;50.794;7.054;2023-09-19T05:37:52;14.95;;;2.80;;
72924;SDS011;61070;50.794;7.054;2023-09-19T05:38:54;11.60;;;2.25;;
72924;SDS011;61070;50.794;7.054;2023-09-19T05:39:55;16.08;;;2.90;;
72924;SDS011;61070;50.794;7.054;2023-09-19T05:40:56;10.45;;;2.60;;
72924;SDS011;61070;50.794;7.054;2023-09-19T05:41:56;10.75;;;2.22;;
72924;SDS011;61070;50.794;7.054;2023-09-19T05:42:57;15.30;;;2.85;;
72924;SDS011;61070;50.794;7.054;2023-09-19T05:43:57;11.50;;;2.50;;
72924;SDS011;61070;50.794;7.054;2023-09-19T05:44:59;14.90;;;2.35;;
72924;SDS011;61070;50.794;7.054;2023-09-19T05:46:00;9.25;;;2.35;;
72924;SDS011;61070;50.794;7.054;2023-09-19T05:47:00;8.43;;;2.70;;
72924;SDS011;61070;50.794;7.054;2023-09-19T05:48:08;16.58;;;3.42;;
72924;SDS011;61070;50.794;7.054;2023-09-19T05:49:10;15.18;;;2.88;;
72924;SDS011;61070;50.794;7.054;2023-09-19T05:50:10;7.60;;;2.22;;
72924;SDS011;61070;50.794;7.054;2023-09-19T05:51:10;8.45;;;2.70;;
72924;SDS011;61070;50.794;7.054;2023-09-19T05:52:10;12.25;;;3.65;;
72924;SDS011;61070;50.794;7.054;2023-09-19T05:53:11;8.25;;;2.47;;
72924;SDS011;61070;50.794;7.054;2023-09-19T05:54:11;12.75;;;2.67;;
72924;SDS011;61070;50.794;7.054;2023-09-19T05:55:12;12.80;;;2.72;;
72924;SDS011;61070;50.794;7.054;2023-09-19T05:56:12;14.63;;;3.08;;
72924;SDS011;61070;50.794;7.054;2023-09-19T05:57:13;13.82;;;2.47;;
72924;SDS011;61070;50.794;7.054;2023-09-19T05:58:15;13.75;;;2.70;;
72924;SDS011;61070;50.794;7.054;2023-09-19T05:59:17;12.40;;;2.80;;
72924;SDS011;61070;50.794;7.054;2023-09-19T06:00:21;10.68;;;2.28;;
72924;SDS011;61070;50.794;7.054;2023-09-19T06:01:22;16.10;;;2.55;;
72924;SDS011;61070;50.794;7.054;2023-09-19T06:02:22;16.90;;;3.00;;
72924;SDS011;61070;50.794;7.054;2023-09-19T06:03:23;14.48;;;3.05;;
72924;SDS011;61070;50.794;7.054;2023-09-19T06:04:23;14.68;;;2.78;;
72924;SDS011;61070;50.794;7.054;2023-09-19T06:05:24;12.80;;;2.50;;
72924;SDS011;61070;50.794;7.054;2023-09-19T06:06:26;8.35;;;2.20;;
72924;SDS011;61070;50.794;7.054;2023-09-19T06:07:27;18.00;;;2.75;;
72924;SDS011;61070;50.794;7.054;2023-09-19T06:08:36;14.52;;;2.53;;
72924;SDS011;61070;50.794;7.054;2023-09-19T06:09:36;13.82;;;3.10;;
72924;SDS011;61070;50.794;7.054;2023-09-19T06:10:36;20.25;;;2.70;;
72924;SDS011;61070;50.794;7.054;2023-09-19T06:11:36;14.27;;;2.47;;
72924;SDS011;61070;50.794;7.054;2023-09-19T06:12:38;13.45;;;2.78;;
72924;SDS011;61070;50.794;7.054;2023-09-19T06:13:44;14.75;;;3.05;;
72924;SDS011;61070;50.794;7.054;2023-09-19T06:14:47;13.15;;;3.08;;
72924;SDS011;61070;50.794;7.054;2023-09-19T06:15:48;9.55;;;2.65;;
72924;SDS011;61070;50.794;7.054;2023-09-19T06:16:49;11.05;;;2.28;;
72924;SDS011;61070;50.794;7.054;2023-09-19T06:17:54;12.80;;;3.47;;
72924;SDS011;61070;50.794;7.054;2023-09-19T06:18:56;11.43;;;2.78;;
72924;SDS011;61070;50.794;7.054;2023-09-19T06:19:56;11.80;;;2.60;;
72924;SDS011;61070;50.794;7.054;2023-09-19T06:20:57;12.45;;;3.08;;
72924;SDS011;61070;50.794;7.054;2023-09-19T06:21:57;11.85;;;2.92;;
72924;SDS011;61070;50.794;7.054;2023-09-19T06:22:59;13.52;;;3.10;;
72924;SDS011;61070;50.794;7.054;2023-09-19T06:24:02;15.23;;;3.08;;
72924;SDS011;61070;50.794;7.054;2023-09-19T06:25:02;11.80;;;3.00;;